Time;durP1;ratioP1;P1;durP2;ratioP2;P2;SDS_P1;SDS_P2;PMS_P1;PMS_P2;Temp;Humidity;BMP_temperature;BMP_pressure;BME280_temperature;BME280_humidity;BME280_pressure;Samples;Min_cycle;Max_cycle;Signal;HPM_P1;HPM_P2
2021/08/15 00:01:06;;;;;;;;;;;;;;;27.44;43.45;97492.81;5043071;28;1329;-91
2021/08/15 00:03:32;;;;;;;;;;;;;;;27.38;43.48;97496.00;5060425;28;1279;-91
2021/08/15 00:05:57;;;;;;;;;;;;;;;27.51;43.29;97495.78;5058811;28;1284;-91
2021/08/15 00:08:22;;;;;;;;;;;;;;;27.44;43.43;97490.19;5041444;28;1559;-91
2021/08/15 00:10:47;;;;;;;;;;;;;;;27.47;43.05;97494.34;5058945;28;1156;-92
2021/08/15 00:13:13;;;;;;;;;;;;;;;27.40;43.41;97491.41;5057613;28;1955;-91
2021/08/15 00:15:38;;;;;;;;;;;;;;;27.39;43.70;97491.53;5060138;28;1466;-92
2021/08/15 00:18:03;;;;;;;;;;;;;;;27.42;43.61;97492.13;5054579;28;1515;-91
2021/08/15 00:20:28;;;;;;;;;;;;;;;27.39;43.63;97480.94;5058915;28;1341;-91
2021/08/15 00:22:54;;;;;;;;;;;;;;;27.40;43.23;97485.28;5066383;28;1655;-91
2021/08/15 00:25:19;;;;;;;;;;;;;;;27.40;43.48;97488.75;5069558;28;1239;-91
2021/08/15 00:27:44;;;;;;;;;;;;;;;27.31;43.86;97486.91;5067099;28;1852;-91
2021/08/15 00:30:10;;;;;;;;;;;;;;;27.34;43.58;97489.31;5057562;28;1427;-91
2021/08/15 00:32:36;;;;;;;;;;;;;;;27.43;43.57;97487.66;5059893;28;1909;-92
2021/08/15 00:35:02;;;;;;;;;;;;;;;27.38;43.56;97481.94;5058590;28;1274;-91
2021/08/15 00:37:27;;;;;;;;;;;;;;;27.34;43.67;97488.47;5057256;28;1633;-92
2021/08/15 00:39:53;;;;;;;;;;;;;;;27.36;43.66;97486.53;5041303;28;1329;-92
2021/08/15 00:42:18;;;;;;;;;;;;;;;27.43;43.42;97487.66;5069008;28;1651;-91
2021/08/15 00:44:43;;;;;;;;;;;;;;;27.53;42.97;97480.59;5056663;28;1369;-92
2021/08/15 00:47:08;;;;;;;;;;;;;;;27.37;43.41;97478.44;5058244;28;1092;-91
2021/08/15 00:49:34;;;;;;;;;;;;;;;27.43;43.67;97483.22;5066343;28;1573;-92
2021/08/15 00:51:59;;;;;;;;;;;;;;;27.54;43.09;97472.50;5059298;28;1959;-91
2021/08/15 00:54:24;;;;;;;;;;;;;;;27.49;43.39;97476.50;5056908;28;1298;-92
2021/08/15 00:56:49;;;;;;;;;;;;;;;27.45;43.32;97465.38;5067306;28;1655;-92
2021/08/15 00:59:15;;;;;;;;;;;;;;;27.53;43.15;97475.28;5055209;28;1205;-91
2021/08/15 01:01:40;;;;;;;;;;;;;;;27.37;43.49;97465.19;5052198;28;1545;-92
2021/08/15 01:04:07;;;;;;;;;;;;;;;27.37;43.77;97467.00;5063374;28;1391;-91
2021/08/15 01:06:33;;;;;;;;;;;;;;;27.50;43.47;97465.81;5042702;28;1394;-92
2021/08/15 01:08:58;;;;;;;;;;;;;;;27.53;43.37;97465.53;5057102;28;1560;-92
2021/08/15 01:11:23;;;;;;;;;;;;;;;27.37;43.56;97467.00;5069527;28;1902;-91
2021/08/15 01:13:48;;;;;;;;;;;;;;;27.47;43.24;97470.53;5057519;28;1572;-90
2021/08/15 01:16:13;;;;;;;;;;;;;;;27.43;43.60;97467.31;5059074;28;1112;-90
2021/08/15 01:18:39;;;;;;;;;;;;;;;27.43;43.54;97462.03;5068119;28;1545;-90
2021/08/15 01:21:05;;;;;;;;;;;;;;;27.45;43.59;97460.06;5065415;28;1571;-90
2021/08/15 01:23:30;;;;;;;;;;;;;;;27.35;43.68;97464.50;5058829;28;1286;-91
2021/08/15 01:25:55;;;;;;;;;;;;;;;27.33;43.69;97457.66;5072667;28;1171;-90
2021/08/15 01:28:21;;;;;;;;;;;;;;;27.32;43.73;97458.63;5056679;28;1628;-90
2021/08/15 01:30:46;;;;;;;;;;;;;;;27.42;43.70;97452.41;5062740;28;1211;-90
2021/08/15 01:33:11;;;;;;;;;;;;;;;27.35;43.68;97451.25;5068656;28;1910;-90
2021/08/15 01:35:37;;;;;;;;;;;;;;;27.43;43.38;97451.44;5064228;28;1139;-90
2021/08/15 01:38:02;;;;;;;;;;;;;;;27.51;43.42;97448.09;5070811;28;1599;-90
2021/08/15 01:40:27;;;;;;;;;;;;;;;27.47;43.53;97446.69;5063292;28;1191;-90
2021/08/15 01:42:52;;;;;;;;;;;;;;;27.46;43.42;97437.91;5060799;28;1979;-89
2021/08/15 01:45:18;;;;;;;;;;;;;;;27.47;43.32;97434.28;5072696;28;1029;-90
2021/08/15 01:47:43;;;;;;;;;;;;;;;27.50;43.49;97441.97;5061041;28;1547;-89
2021/08/15 01:50:08;;;;;;;;;;;;;;;27.47;43.38;97431.63;5070546;28;1592;-90
2021/08/15 01:52:33;;;;;;;;;;;;;;;27.45;43.56;97446.00;5061192;28;1914;-90
2021/08/15 01:54:59;;;;;;;;;;;;;;;27.34;43.51;97440.81;5059325;28;1427;-89
2021/08/15 01:57:24;;;;;;;;;;;;;;;27.46;43.51;97443.19;5061378;28;1589;-90
2021/08/15 01:59:49;;;;;;;;;;;;;;;27.48;43.45;97437.75;5071644;28;1234;-89
2021/08/15 02:02:14;;;;;;;;;;;;;;;27.49;43.45;97442.94;5062328;28;1163;-90
2021/08/15 02:04:39;;;;;;;;;;;;;;;27.35;43.73;97438.03;5044888;28;1501;-89
2021/08/15 02:07:05;;;;;;;;;;;;;;;27.51;43.24;97446.28;5069497;28;1651;-90
2021/08/15 02:09:30;;;;;;;;;;;;;;;27.50;43.58;97443.78;5059717;28;1540;-90
2021/08/15 02:11:55;;;;;;;;;;;;;;;27.32;43.71;97438.28;5058685;28;1969;-90
2021/08/15 02:14:20;;;;;;;;;;;;;;;27.46;43.48;97429.97;5070807;28;1742;-89
2021/08/15 02:16:46;;;;;;;;;;;;;;;27.52;43.29;97437.38;5071351;28;1273;-90
2021/08/15 02:19:11;;;;;;;;;;;;;;;27.37;43.43;97429.94;5062488;28;1140;-90
2021/08/15 02:21:36;;;;;;;;;;;;;;;27.46;43.58;97429.13;5067761;28;1548;-90
2021/08/15 02:24:01;;;;;;;;;;;;;;;27.43;43.55;97424.13;5071152;28;1283;-90
2021/08/15 02:26:26;;;;;;;;;;;;;;;27.39;43.46;97415.59;5058898;28;1427;-90
2021/08/15 02:28:52;;;;;;;;;;;;;;;27.42;43.56;97423.28;5058605;28;1572;-90
2021/08/15 02:31:17;;;;;;;;;;;;;;;27.52;43.41;97426.78;5066361;28;1975;-90
2021/08/15 02:33:42;;;;;;;;;;;;;;;27.46;43.31;97424.66;5060484;28;1369;-90
2021/08/15 02:36:07;;;;;;;;;;;;;;;27.46;43.64;97422.00;5069123;28;1084;-90
2021/08/15 02:38:32;;;;;;;;;;;;;;;27.54;43.40;97430.13;5058295;28;1422;-90
2021/08/15 02:40:58;;;;;;;;;;;;;;;27.32;43.73;97435.63;5040229;28;1612;-89
2021/08/15 02:43:23;;;;;;;;;;;;;;;27.45;43.69;97423.00;5057907;28;1564;-90
2021/08/15 02:45:48;;;;;;;;;;;;;;;27.54;43.43;97421.34;5060512;28;1259;-89
2021/08/15 02:48:13;;;;;;;;;;;;;;;27.50;43.25;97414.66;5069809;28;1362;-90
2021/08/15 02:50:39;;;;;;;;;;;;;;;27.48;43.21;97409.47;5071028;28;1021;-90
2021/08/15 02:53:04;;;;;;;;;;;;;;;27.43;43.63;97413.53;5068794;28;1913;-90
2021/08/15 02:55:29;;;;;;;;;;;;;;;27.46;43.48;97418.53;5061316;28;1278;-90
2021/08/15 02:57:54;;;;;;;;;;;;;;;27.47;43.42;97420.19;5058843;28;1609;-89
2021/08/15 03:00:19;;;;;;;;;;;;;;;27.39;43.82;97402.34;5070945;28;1559;-89
2021/08/15 03:02:45;;;;;;;;;;;;;;;27.45;43.54;97415.03;5069860;28;1275;-90
2021/08/15 03:05:10;;;;;;;;;;;;;;;27.42;43.51;97411.84;5071078;28;1178;-90
2021/08/15 03:07:35;;;;;;;;;;;;;;;27.42;43.58;97409.19;5060603;28;1577;-90
2021/08/15 03:10:00;;;;;;;;;;;;;;;27.42;43.74;97409.19;5042421;28;1212;-90
2021/08/15 03:12:26;;;;;;;;;;;;;;;27.51;43.42;97406.56;5044242;28;1971;-89
2021/08/15 03:14:51;;;;;;;;;;;;;;;27.47;43.31;97399.00;5043115;28;1370;-90
2021/08/15 03:17:16;;;;;;;;;;;;;;;27.33;43.77;97400.22;5070357;28;1234;-90
2021/08/15 03:19:41;;;;;;;;;;;;;;;27.40;43.64;97404.00;5065568;28;1689;-90
2021/08/15 03:22:06;;;;;;;;;;;;;;;27.48;43.64;97390.09;5058554;28;1604;-90
2021/08/15 03:24:32;;;;;;;;;;;;;;;27.47;43.66;97391.91;5069353;28;1275;-90
2021/08/15 03:26:57;;;;;;;;;;;;;;;27.45;43.73;97387.72;5069233;28;2205;-90
2021/08/15 03:29:22;;;;;;;;;;;;;;;27.45;43.67;97385.06;5059949;28;1208;-90
2021/08/15 03:31:47;;;;;;;;;;;;;;;27.52;43.37;97387.03;5059573;28;1935;-89
2021/08/15 03:34:12;;;;;;;;;;;;;;;27.48;43.24;97387.44;5058019;28;1369;-90
2021/08/15 03:36:38;;;;;;;;;;;;;;;27.42;43.54;97390.66;5068992;28;1521;-90
2021/08/15 03:39:03;;;;;;;;;;;;;;;27.40;43.70;97387.28;5068895;28;1528;-90
2021/08/15 03:41:28;;;;;;;;;;;;;;;27.42;43.53;97396.78;5070158;28;1223;-90
2021/08/15 03:43:54;;;;;;;;;;;;;;;27.44;43.59;97394.84;5066062;28;1607;-89
2021/08/15 03:46:19;;;;;;;;;;;;;;;27.42;43.56;97386.19;5069051;28;1099;-90
2021/08/15 03:48:44;;;;;;;;;;;;;;;27.40;43.80;97393.41;5069381;28;1239;-89
2021/08/15 03:51:09;;;;;;;;;;;;;;;27.42;43.83;97388.00;5041492;28;1905;-90
2021/08/15 03:53:35;;;;;;;;;;;;;;;27.48;43.53;97390.09;5059576;28;1235;-90
2021/08/15 03:56:00;;;;;;;;;;;;;;;27.47;43.72;97383.97;5058725;28;1246;-90
2021/08/15 03:58:28;;;;;;;;;;;;;;;27.45;43.73;97385.06;5056581;28;2082;-90
2021/08/15 04:00:53;;;;;;;;;;;;;;;27.45;43.45;97388.56;5069044;28;1018;-90
2021/08/15 04:03:18;;;;;;;;;;;;;;;27.43;43.62;97387.88;5068763;28;1336;-90
2021/08/15 04:05:43;;;;;;;;;;;;;;;27.41;43.73;97381.00;5059161;28;1143;-89
2021/08/15 04:08:09;;;;;;;;;;;;;;;27.37;43.69;97382.28;5057736;28;2102;-90
2021/08/15 04:10:34;;;;;;;;;;;;;;;27.29;44.15;97375.00;5040564;28;1600;-90
2021/08/15 04:12:59;;;;;;;;;;;;;;;27.43;43.80;97379.91;5057791;28;1940;-90
2021/08/15 04:15:25;;;;;;;;;;;;;;;27.43;43.83;97390.53;5058159;28;1163;-90
2021/08/15 04:17:50;;;;;;;;;;;;;;;27.39;43.62;97381.16;5068266;28;1139;-89
2021/08/15 04:20:15;;;;;;;;;;;;;;;27.37;43.90;97385.75;5068907;28;1288;-90
2021/08/15 04:22:40;;;;;;;;;;;;;;;27.45;43.79;97393.03;5057132;28;1621;-90
2021/08/15 04:25:06;;;;;;;;;;;;;;;27.34;43.61;97388.69;5069438;28;1196;-91
2021/08/15 04:27:31;;;;;;;;;;;;;;;27.46;43.40;97386.75;5065081;28;1513;-90
2021/08/15 04:29:56;;;;;;;;;;;;;;;27.32;43.88;97395.06;5057803;28;1218;-90
2021/08/15 04:32:21;;;;;;;;;;;;;;;27.40;43.74;97387.28;5068906;28;1910;-90
2021/08/15 04:34:47;;;;;;;;;;;;;;;27.34;44.01;97394.00;5060357;28;1381;-90
2021/08/15 04:37:12;;;;;;;;;;;;;;;27.37;43.52;97390.22;5056590;28;1589;-91
2021/08/15 04:39:37;;;;;;;;;;;;;;;27.48;43.26;97390.94;5067562;28;1405;-90
2021/08/15 04:42:02;;;;;;;;;;;;;;;27.43;43.50;97390.53;5068100;28;2122;-89
2021/08/15 04:44:27;;;;;;;;;;;;;;;27.40;43.74;97393.41;5057553;28;1284;-89
2021/08/15 04:46:53;;;;;;;;;;;;;;;27.44;43.53;97380.75;5058624;28;1103;-90
2021/08/15 04:49:18;;;;;;;;;;;;;;;27.37;43.73;97390.22;5065080;28;1508;-90
2021/08/15 04:51:43;;;;;;;;;;;;;;;27.37;43.91;97392.88;5069628;28;1909;-90
2021/08/15 04:54:08;;;;;;;;;;;;;;;27.46;43.75;97395.53;5057330;28;1431;-90
2021/08/15 04:56:33;;;;;;;;;;;;;;;27.42;43.71;97390.66;5062471;28;1198;-91
2021/08/15 04:58:59;;;;;;;;;;;;;;;27.43;43.76;97384.38;5070540;28;1564;-90
2021/08/15 05:01:24;;;;;;;;;;;;;;;27.41;43.76;97395.13;5062192;28;1140;-90
2021/08/15 05:03:50;;;;;;;;;;;;;;;27.42;43.46;97394.16;5072504;28;1295;-90
2021/08/15 05:06:15;;;;;;;;;;;;;;;27.39;43.82;97397.03;5068910;28;1943;-89
2021/08/15 05:08:40;;;;;;;;;;;;;;;27.37;43.63;97391.06;5061907;28;1274;-90
2021/08/15 05:11:05;;;;;;;;;;;;;;;27.40;43.81;97387.28;5042610;28;1530;-90
2021/08/15 05:13:31;;;;;;;;;;;;;;;27.45;43.42;97385.91;5062172;28;1906;-90
2021/08/15 05:15:56;;;;;;;;;;;;;;;27.45;43.36;97399.16;5072526;28;1421;-90
2021/08/15 05:18:21;;;;;;;;;;;;;;;27.39;43.62;97399.69;5063572;28;1207;-90
2021/08/15 05:20:46;;;;;;;;;;;;;;;27.33;43.93;97394.94;5059822;28;1583;-90
2021/08/15 05:23:12;;;;;;;;;;;;;;;27.47;43.61;97394.56;5063763;28;1299;-90
2021/08/15 05:25:37;;;;;;;;;;;;;;;27.38;43.49;97395.38;5062956;28;1124;-90
2021/08/15 05:28:03;;;;;;;;;;;;;;;27.46;43.81;97398.19;5071351;28;1827;-90
2021/08/15 05:30:29;;;;;;;;;;;;;;;27.42;43.56;97395.97;5072127;28;1230;-89
2021/08/15 05:32:54;;;;;;;;;;;;;;;27.43;43.66;97395.81;5072272;28;1967;-90
2021/08/15 05:35:19;;;;;;;;;;;;;;;27.50;43.44;97401.41;5062434;28;1215;-90
2021/08/15 05:37:44;;;;;;;;;;;;;;;27.44;43.71;97400.13;5061758;28;1565;-90
2021/08/15 05:40:09;;;;;;;;;;;;;;;27.40;43.81;97400.53;5062781;28;1214;-90
2021/08/15 05:42:35;;;;;;;;;;;;;;;27.37;43.82;97403.47;5061054;28;1621;-90
2021/08/15 05:45:00;;;;;;;;;;;;;;;27.37;43.58;97403.47;5062087;28;1298;-90
2021/08/15 05:47:28;;;;;;;;;;;;;;;27.44;43.59;97400.13;5071352;28;1234;-90
2021/08/15 05:49:53;;;;;;;;;;;;;;;27.37;43.75;97399.00;5071119;28;1513;-90
2021/08/15 05:52:18;;;;;;;;;;;;;;;27.40;43.69;97397.88;5071922;28;1972;-90
2021/08/15 05:54:43;;;;;;;;;;;;;;;27.39;43.88;97405.00;5062224;28;1404;-90
2021/08/15 05:57:09;;;;;;;;;;;;;;;27.36;43.57;97404.44;5070512;28;1532;-90
2021/08/15 05:59:34;;;;;;;;;;;;;;;27.37;43.95;97400.81;5067112;28;1636;-90
2021/08/15 06:01:59;;;;;;;;;;;;;;;27.37;44.03;97401.66;5045000;28;1421;-90
2021/08/15 06:04:25;;;;;;;;;;;;;;;27.34;43.78;97404.56;5061613;28;1283;-90
2021/08/15 06:06:50;;;;;;;;;;;;;;;27.41;43.62;97405.72;5062993;28;1198;-90
2021/08/15 06:09:15;;;;;;;;;;;;;;;27.38;43.82;97400.66;5057352;28;1620;-90
2021/08/15 06:11:40;;;;;;;;;;;;;;;27.44;43.82;97404.59;5061810;28;1969;-90
2021/08/15 06:14:05;;;;;;;;;;;;;;;27.38;43.70;97400.66;5058340;28;1681;-89
2021/08/15 06:16:31;;;;;;;;;;;;;;;27.51;43.23;97400.44;5062267;28;1231;-90
2021/08/15 06:18:56;;;;;;;;;;;;;;;27.38;43.77;97403.31;5067262;28;1528;-90
2021/08/15 06:21:21;;;;;;;;;;;;;;;27.43;43.85;97394.97;5077029;28;1244;-90
2021/08/15 06:23:48;;;;;;;;;;;;;;;27.42;43.81;97399.44;5060705;28;1316;-90
2021/08/15 06:26:13;;;;;;;;;;;;;;;27.43;43.61;97395.81;5069405;28;1584;-90
2021/08/15 06:28:38;;;;;;;;;;;;;;;27.47;43.72;97401.66;5058836;28;1621;-90
2021/08/15 06:31:03;;;;;;;;;;;;;;;27.45;43.81;97401.81;5061555;28;1206;-90
2021/08/15 06:33:28;;;;;;;;;;;;;;;27.42;43.69;97402.09;5060264;28;1902;-90
2021/08/15 06:35:54;;;;;;;;;;;;;;;27.51;43.38;97395.97;5069168;28;1610;-90
2021/08/15 06:38:19;;;;;;;;;;;;;;;27.47;43.61;97396.38;5071260;28;1159;-90
2021/08/15 06:40:44;;;;;;;;;;;;;;;27.50;43.26;97390.81;5071610;28;1398;-89
2021/08/15 06:43:10;;;;;;;;;;;;;;;27.49;43.63;97397.91;5058159;28;1566;-90
2021/08/15 06:45:35;;;;;;;;;;;;;;;27.42;43.87;97401.25;5061635;28;1157;-90
2021/08/15 06:48:00;;;;;;;;;;;;;;;27.42;43.48;97388.84;5069641;28;1096;-90
2021/08/15 06:50:26;;;;;;;;;;;;;;;27.43;43.59;97392.34;5068262;28;1533;-90
2021/08/15 06:52:51;;;;;;;;;;;;;;;27.41;43.87;97387.19;5071320;28;1898;-90
2021/08/15 06:55:16;;;;;;;;;;;;;;;27.49;43.38;97392.63;5070527;28;1167;-90
2021/08/15 06:57:41;;;;;;;;;;;;;;;27.50;43.59;97389.00;5068926;28;2199;-90
2021/08/15 07:00:07;;;;;;;;;;;;;;;27.48;43.59;97396.22;5070194;28;1564;-89
2021/08/15 07:02:36;;;;;;;;;;;;;;;27.49;43.60;97391.75;5060788;28;1215;-90
2021/08/15 07:05:01;;;;;;;;;;;;;;;27.42;43.50;97393.31;5057170;28;2056;-90
2021/08/15 07:07:26;;;;;;;;;;;;;;;27.47;43.71;97388.41;5070926;28;1155;-90
2021/08/15 07:09:51;;;;;;;;;;;;;;;27.50;43.30;97394.28;5058324;28;1592;-90
2021/08/15 07:12:17;;;;;;;;;;;;;;;27.49;43.52;97400.56;5069630;28;2010;-90
2021/08/15 07:14:42;;;;;;;;;;;;;;;27.49;43.59;97392.63;5065175;22;3744;-55
2021/08/15 07:17:07;;;;;;;;;;;;;;;27.50;43.71;97394.28;5070969;28;1101;-55
2021/08/15 07:19:32;;;;;;;;;;;;;;;27.48;43.63;97393.56;5069681;28;1754;-55
2021/08/15 07:21:58;;;;;;;;;;;;;;;27.51;43.68;97390.66;5068111;28;1625;-55
2021/08/15 07:24:23;;;;;;;;;;;;;;;27.50;43.66;97389.00;5070340;28;1079;-55
2021/08/15 07:26:48;;;;;;;;;;;;;;;27.46;43.69;97397.34;5069621;28;1521;-56
2021/08/15 07:29:13;;;;;;;;;;;;;;;27.51;43.69;97389.84;5069269;28;1548;-56
2021/08/15 07:31:40;;;;;;;;;;;;;;;27.48;43.47;97388.28;5069367;28;1985;-56
2021/08/15 07:34:05;;;;;;;;;;;;;;;27.46;43.78;97384.94;5068629;28;1245;-57
2021/08/15 07:36:30;;;;;;;;;;;;;;;27.46;43.50;97387.59;5070781;28;1151;-57
2021/08/15 07:38:55;;;;;;;;;;;;;;;27.50;43.47;97382.88;5068516;28;1571;-56
2021/08/15 07:41:20;;;;;;;;;;;;;;;27.50;43.69;97381.06;5070917;28;1162;-56
2021/08/15 07:43:46;;;;;;;;;;;;;;;27.52;43.43;97387.03;5068126;28;1637;-56
2021/08/15 07:46:14;;;;;;;;;;;;;;;27.50;43.58;97383.69;5070354;28;1264;-55
2021/08/15 07:48:40;;;;;;;;;;;;;;;27.46;43.60;97392.88;5067485;28;1279;-55
2021/08/15 07:51:05;;;;;;;;;;;;;;;27.45;43.73;97382.44;5066185;28;1607;-56
2021/08/15 07:53:30;;;;;;;;;;;;;;;27.47;43.57;97389.25;5069304;28;1971;-55
2021/08/15 07:55:56;;;;;;;;;;;;;;;27.50;43.47;97396.94;5069610;28;1503;-56
2021/08/15 07:58:21;;;;;;;;;;;;;;;27.50;43.63;97393.47;5069033;28;1561;-56
2021/08/15 08:00:46;;;;;;;;;;;;;;;27.48;43.73;97390.94;5068486;28;1414;-55
2021/08/15 08:03:11;;;;;;;;;;;;;;;27.44;43.81;97389.53;5067248;28;1080;-56
2021/08/15 08:05:37;;;;;;;;;;;;;;;27.48;43.78;97385.63;5069544;28;1190;-56
2021/08/15 08:08:02;;;;;;;;;;;;;;;27.49;43.65;97386.47;5069498;28;1627;-57
2021/08/15 08:10:27;;;;;;;;;;;;;;;27.45;43.66;97383.25;5065829;28;1334;-56
2021/08/15 08:12:52;;;;;;;;;;;;;;;27.52;43.25;97381.75;5069064;28;1909;-55
2021/08/15 08:15:18;;;;;;;;;;;;;;;27.48;43.71;97385.63;5068103;28;1452;-56
2021/08/15 08:17:43;;;;;;;;;;;;;;;27.47;43.65;97386.59;5070473;28;1292;-57
2021/08/15 08:20:08;;;;;;;;;;;;;;;27.49;43.42;97376.72;5068961;28;1639;-55
2021/08/15 08:22:34;;;;;;;;;;;;;;;27.50;43.65;97378.41;5069065;28;1194;-56
2021/08/15 08:24:59;;;;;;;;;;;;;;;27.51;43.45;97376.59;5069840;28;1073;-55
2021/08/15 08:27:24;;;;;;;;;;;;;;;27.46;43.68;97370.84;5068214;28;1611;-56
2021/08/15 08:29:50;;;;;;;;;;;;;;;27.42;43.71;97374.78;5067950;28;1536;-56
2021/08/15 08:32:15;;;;;;;;;;;;;;;27.44;43.82;97375.47;5069686;28;1975;-55
2021/08/15 08:34:40;;;;;;;;;;;;;;;27.51;43.30;97366.84;5064750;28;1764;-55
2021/08/15 08:37:05;;;;;;;;;;;;;;;27.45;43.76;97370.03;5069380;28;1188;-57
2021/08/15 08:39:30;;;;;;;;;;;;;;;27.46;43.46;97369.03;5068711;28;1232;-56
2021/08/15 08:42:00;;;;;;;;;;;;;;;27.49;43.42;97363.50;5069284;28;1611;-56
2021/08/15 08:44:25;;;;;;;;;;;;;;;27.45;43.78;97356.78;5067765;28;1222;-57
2021/08/15 08:46:51;;;;;;;;;;;;;;;27.43;43.44;97357.91;5069537;28;1182;-56
2021/08/15 08:49:16;;;;;;;;;;;;;;;27.44;43.60;97356.91;5062337;28;1274;-55
2021/08/15 08:51:41;;;;;;;;;;;;;;;27.42;43.68;97351.78;5064798;28;1914;-56
2021/08/15 08:54:07;;;;;;;;;;;;;;;27.47;43.77;97357.47;5067471;28;1214;-55
2021/08/15 08:56:32;;;;;;;;;;;;;;;27.50;43.66;97349.28;5069696;28;1016;-55
2021/08/15 08:58:57;;;;;;;;;;;;;;;27.53;43.48;97350.78;5065620;28;1552;-55
2021/08/15 09:01:22;;;;;;;;;;;;;;;27.47;43.59;97357.47;5069879;28;1183;-54
2021/08/15 09:03:47;;;;;;;;;;;;;;;27.45;43.49;97348.84;5068577;28;1298;-55
2021/08/15 09:06:19;;;;;;;;;;;;;;;27.44;43.75;97344.50;5069644;28;1242;-55
2021/08/15 09:08:45;;;;;;;;;;;;;;;27.46;43.46;97342.56;5067107;28;1627;-56
2021/08/15 09:11:14;;;;;;;;;;;;;;;27.48;43.59;97343.25;5070032;28;1218;-56
2021/08/15 09:13:39;;;;;;;;;;;;;;;27.43;43.34;97342.00;5063887;28;1963;-55
2021/08/15 09:16:04;;;;;;;;;;;;;;;27.43;43.60;97336.72;5069503;28;1123;-56
2021/08/15 09:18:29;;;;;;;;;;;;;;;27.41;43.57;97330.69;5065932;28;1452;-55
2021/08/15 09:20:54;;;;;;;;;;;;;;;27.57;43.22;97332.81;5069662;28;1128;-56
2021/08/15 09:23:23;;;;;;;;;;;;;;;27.47;43.51;97335.44;5067712;28;1749;-56
2021/08/15 09:26:06;;;;;;;;;;;;;;;27.47;43.57;97332.81;5067580;28;1323;-56
2021/08/15 09:28:32;;;;;;;;;;;;;;;27.39;43.50;97330.00;5065184;28;1639;-57
2021/08/15 09:30:57;;;;;;;;;;;;;;;27.42;43.73;97327.94;5069158;28;1199;-56
2021/08/15 09:33:22;;;;;;;;;;;;;;;27.52;43.32;97325.28;5075173;28;1942;-56
2021/08/15 09:35:48;;;;;;;;;;;;;;;27.52;43.51;97326.13;5068180;28;1119;-56
2021/08/15 09:38:14;;;;;;;;;;;;;;;27.61;43.01;97320.97;5068312;28;1595;-55
2021/08/15 09:40:42;;;;;;;;;;;;;;;27.44;43.78;97328.63;5069150;28;1084;-55
2021/08/15 09:43:11;;;;;;;;;;;;;;;27.41;43.69;97320.09;5068659;28;1556;-56
2021/08/15 09:45:40;;;;;;;;;;;;;;;27.53;43.57;97317.19;5070804;28;1096;-56
2021/08/15 09:48:15;;;;;;;;;;;;;;;27.48;43.54;97321.22;5071460;28;1541;-56
2021/08/15 09:50:40;;;;;;;;;;;;;;;27.49;43.50;97314.94;5071450;28;1187;-56
2021/08/15 09:53:05;;;;;;;;;;;;;;;27.53;43.37;97314.53;5070771;28;1898;-56
2021/08/15 09:55:45;;;;;;;;;;;;;;;27.39;43.68;97312.31;5072904;28;1281;-56
2021/08/15 09:58:16;;;;;;;;;;;;;;;27.47;43.45;97312.44;5070307;28;1594;-55
2021/08/15 10:00:42;;;;;;;;;;;;;;;27.43;43.76;97315.53;5072341;28;1223;-56
2021/08/15 10:03:07;;;;;;;;;;;;;;;27.56;43.36;97302.81;5070806;28;1520;-56
2021/08/15 10:05:32;;;;;;;;;;;;;;;27.44;43.52;97298.66;5069656;28;1501;-56
2021/08/15 10:07:58;;;;;;;;;;;;;;;27.56;43.27;97286.94;5069824;28;1289;-57
2021/08/15 10:10:23;;;;;;;;;;;;;;;27.51;43.69;97283.88;5062972;28;1545;-56
2021/08/15 10:12:48;;;;;;;;;;;;;;;27.55;43.23;97285.25;5064819;28;1968;-56
2021/08/15 10:15:14;;;;;;;;;;;;;;;27.49;43.63;97277.88;5070122;28;1391;-56
2021/08/15 10:17:39;;;;;;;;;;;;;;;27.46;43.65;97286.94;5071865;28;1061;-55
2021/08/15 10:20:05;;;;;;;;;;;;;;;27.50;43.63;97282.22;5063619;28;1703;-55
2021/08/15 10:22:31;;;;;;;;;;;;;;;27.50;43.68;97274.28;5072500;28;1175;-55
2021/08/15 10:24:57;;;;;;;;;;;;;;;27.48;43.57;97270.91;5068328;28;1270;-56
2021/08/15 10:27:40;;;;;;;;;;;;;;;27.58;43.52;97268.28;5067537;28;1557;-56
2021/08/15 10:30:18;;;;;;;;;;;;;;;27.47;43.54;97270.06;5070617;28;1167;-56
2021/08/15 10:32:55;;;;;;;;;;;;;;;27.50;43.59;97261.03;5069473;28;1902;-56
2021/08/15 10:35:20;;;;;;;;;;;;;;;27.46;43.53;97255.16;5069792;28;1303;-56
2021/08/15 10:37:46;;;;;;;;;;;;;;;27.53;43.34;97261.56;5070894;28;1572;-55
2021/08/15 10:40:31;;;;;;;;;;;;;;;27.53;43.28;97261.56;5071193;28;1219;-56
2021/08/15 10:42:56;;;;;;;;;;;;;;;27.48;43.53;97258.50;5070714;28;1596;-56
2021/08/15 10:45:22;;;;;;;;;;;;;;;27.50;43.63;97267.16;5071620;28;1132;-55
2021/08/15 10:48:12;;;;;;;;;;;;;;;27.52;43.43;97257.25;5070567;28;1355;-56
2021/08/15 10:50:40;;;;;;;;;;;;;;;27.52;43.46;97256.41;5069837;28;1216;-56
2021/08/15 10:53:24;;;;;;;;;;;;;;;27.45;43.38;97253.50;5067444;28;1987;-56
2021/08/15 10:55:50;;;;;;;;;;;;;;;27.50;43.51;97245.97;5069640;28;1316;-55
2021/08/15 10:58:36;;;;;;;;;;;;;;;27.45;43.55;97242.06;5069787;28;1608;-55
2021/08/15 11:01:01;;;;;;;;;;;;;;;27.52;43.39;97248.47;5071414;28;988;-55
2021/08/15 11:03:26;;;;;;;;;;;;;;;27.51;43.19;97238.84;5070848;28;1191;-56
2021/08/15 11:05:51;;;;;;;;;;;;;;;27.46;43.53;97241.91;5071440;28;1118;-55
2021/08/15 11:08:32;;;;;;;;;;;;;;;27.57;43.45;97237.44;5069363;28;1563;-55
2021/08/15 11:11:07;;;;;;;;;;;;;;;27.57;43.34;97237.44;5068561;28;1068;-55
2021/08/15 11:13:33;;;;;;;;;;;;;;;27.49;43.16;97233.72;5068787;28;1886;-55
2021/08/15 11:16:21;;;;;;;;;;;;;;;27.57;43.24;97229.50;5069864;28;1223;-55
2021/08/15 11:19:05;;;;;;;;;;;;;;;27.57;43.46;97219.75;5067881;28;1314;-55
2021/08/15 11:21:48;;;;;;;;;;;;;;;27.49;43.38;97227.53;5068949;28;1547;-55
2021/08/15 11:24:14;;;;;;;;;;;;;;;27.41;43.82;97215.03;5070539;28;1109;-56
2021/08/15 11:26:39;;;;;;;;;;;;;;;27.50;43.58;97208.88;5069751;28;1135;-56
2021/08/15 11:29:05;;;;;;;;;;;;;;;27.50;43.59;97203.59;5066099;28;1568;-55
2021/08/15 11:31:36;;;;;;;;;;;;;;;27.52;43.15;97198.16;5069717;28;1906;-56
2021/08/15 11:34:07;;;;;;;;;;;;;;;27.49;43.46;97196.63;5067553;28;1394;-56
2021/08/15 11:36:32;;;;;;;;;;;;;;;27.51;43.48;97196.47;5069819;28;2122;-56
2021/08/15 11:38:57;;;;;;;;;;;;;;;27.56;43.28;97194.22;5066559;28;1283;-56
2021/08/15 11:41:23;;;;;;;;;;;;;;;27.49;43.56;97191.34;5069145;28;1508;-56
2021/08/15 11:43:57;;;;;;;;;;;;;;;27.47;43.32;97187.13;5065435;28;1594;-56
2021/08/15 11:46:22;;;;;;;;;;;;;;;27.51;43.53;97191.19;5069731;28;1220;-55
2021/08/15 11:48:47;;;;;;;;;;;;;;;27.46;43.45;97178.34;5069814;28;1315;-56
2021/08/15 11:51:13;;;;;;;;;;;;;;;27.58;43.42;97175.56;5069733;28;1143;-56
2021/08/15 11:53:38;;;;;;;;;;;;;;;27.55;43.42;97174.84;5068237;28;1894;-55
2021/08/15 11:56:08;;;;;;;;;;;;;;;27.54;43.25;97177.66;5068414;28;1192;-55
2021/08/15 11:58:33;;;;;;;;;;;;;;;27.53;43.37;97176.81;5069213;28;1513;-56
2021/08/15 12:01:04;;;;;;;;;;;;;;;27.54;43.29;97170.53;5065676;28;1251;-55
2021/08/15 12:03:29;;;;;;;;;;;;;;;27.53;43.38;97163.56;5069653;28;1199;-56
2021/08/15 12:05:55;;;;;;;;;;;;;;;27.60;43.38;97163.00;5067861;28;1281;-57
2021/08/15 12:08:21;;;;;;;;;;;;;;;27.61;43.18;97162.03;5070003;28;1548;-55
2021/08/15 12:10:47;;;;;;;;;;;;;;;27.53;43.34;97163.56;5069368;28;1183;-55
2021/08/15 12:13:14;;;;;;;;;;;;;;;27.60;43.17;97155.06;5065504;28;1909;-55
2021/08/15 12:15:39;;;;;;;;;;;;;;;27.57;43.14;97156.19;5069014;28;1045;-56
2021/08/15 12:18:05;;;;;;;;;;;;;;;27.49;43.46;97161.34;5067878;28;1390;-57
2021/08/15 12:20:30;;;;;;;;;;;;;;;27.41;43.69;97164.72;5067166;28;1324;-56
2021/08/15 12:23:05;;;;;;;;;;;;;;;27.59;43.38;97158.69;5068662;28;1669;-56
2021/08/15 12:25:31;;;;;;;;;;;;;;;27.58;43.29;97147.25;5067493;28;1011;-57
2021/08/15 12:28:05;;;;;;;;;;;;;;;27.52;43.39;97145.19;5069347;28;1517;-57
2021/08/15 12:30:31;;;;;;;;;;;;;;;27.55;43.33;97139.59;5068893;28;1685;-56
2021/08/15 12:32:56;;;;;;;;;;;;;;;27.53;43.36;97128.31;5068711;28;1894;-56
2021/08/15 12:35:25;;;;;;;;;;;;;;;27.53;43.37;97123.84;5063360;28;1328;-56
2021/08/15 12:37:50;;;;;;;;;;;;;;;27.39;43.61;97126.94;5067904;28;1544;-56
2021/08/15 12:40:18;;;;;;;;;;;;;;;27.54;43.31;97114.06;5068759;28;1194;-57
2021/08/15 12:42:53;;;;;;;;;;;;;;;27.44;43.34;97122.06;5069102;28;1615;-56
2021/08/15 12:45:28;;;;;;;;;;;;;;;27.48;43.24;97114.66;5068232;28;1297;-56
2021/08/15 12:47:55;;;;;;;;;;;;;;;27.53;43.50;97104.47;5069992;28;1374;-55
2021/08/15 12:50:24;;;;;;;;;;;;;;;27.50;43.40;97110.06;5063106;28;1526;-57
2021/08/15 12:52:49;;;;;;;;;;;;;;;27.49;43.37;97109.22;5067430;28;1906;-55